sensor_id;sensor_type;location;lat;lon;timestamp;pressure;altitude;pressure_sealevel;temperature;humidity
63700;BME280;49845;47.130;142.766;2023-02-24T00:01:35;100712.03;;;-5.93;72.37
63700;BME280;49845;47.130;142.766;2023-02-24T00:04:10;100714.22;;;-5.70;71.61
63700;BME280;49845;47.130;142.766;2023-02-24T00:06:42;100708.91;;;-5.43;71.04
63700;BME280;49845;47.130;142.766;2023-02-24T00:09:16;100691.38;;;-5.37;69.70
63700;BME280;49845;47.130;142.766;2023-02-24T00:11:53;100711.09;;;-5.18;68.63
63700;BME280;49845;47.130;142.766;2023-02-24T00:14:26;100705.59;;;-5.09;68.08
63700;BME280;49845;47.130;142.766;2023-02-24T00:16:57;100705.94;;;-5.03;67.58
63700;BME280;49845;47.130;142.766;2023-02-24T00:19:29;100692.25;;;-5.05;67.25
63700;BME280;49845;47.130;142.766;2023-02-24T00:22:00;100696.53;;;-5.04;66.94
63700;BME280;49845;47.130;142.766;2023-02-24T00:24:33;100635.94;;;-5.26;66.55
63700;BME280;49845;47.130;142.766;2023-02-24T00:27:05;100708.38;;;-4.73;66.13
63700;BME280;49845;47.130;142.766;2023-02-24T00:29:39;100704.69;;;-4.62;65.81
63700;BME280;49845;47.130;142.766;2023-02-24T00:32:10;100697.03;;;-4.46;65.30
63700;BME280;49845;47.130;142.766;2023-02-24T00:34:42;100691.69;;;-4.34;64.96
63700;BME280;49845;47.130;142.766;2023-02-24T00:37:14;100683.06;;;-4.36;64.80
63700;BME280;49845;47.130;142.766;2023-02-24T00:39:47;100700.25;;;-4.32;64.54
63700;BME280;49845;47.130;142.766;2023-02-24T00:42:17;100696.22;;;-4.28;64.88
63700;BME280;49845;47.130;142.766;2023-02-24T00:44:50;100679.47;;;-4.40;64.76
63700;BME280;49845;47.130;142.766;2023-02-24T00:47:21;100709.72;;;-4.13;64.17
63700;BME280;49845;47.130;142.766;2023-02-24T00:49:52;100692.47;;;-4.01;64.24
63700;BME280;49845;47.130;142.766;2023-02-24T00:52:24;100692.25;;;-3.87;64.15
63700;BME280;49845;47.130;142.766;2023-02-24T00:54:56;100698.75;;;-3.76;63.67
63700;BME280;49845;47.130;142.766;2023-02-24T00:57:27;100695.97;;;-3.63;63.35
63700;BME280;49845;47.130;142.766;2023-02-24T00:59:57;100694.44;;;-3.41;63.46
63700;BME280;49845;47.130;142.766;2023-02-24T01:02:28;100688.97;;;-3.31;63.31
63700;BME280;49845;47.130;142.766;2023-02-24T01:04:59;100696.94;;;-3.06;62.49
63700;BME280;49845;47.130;142.766;2023-02-24T01:07:33;100689.56;;;-2.99;62.62
63700;BME280;49845;47.130;142.766;2023-02-24T01:10:06;100693.13;;;-2.96;62.17
63700;BME280;49845;47.130;142.766;2023-02-24T01:12:39;100685.53;;;-2.94;62.14
63700;BME280;49845;47.130;142.766;2023-02-24T01:15:19;100694.41;;;-2.86;61.89
63700;BME280;49845;47.130;142.766;2023-02-24T01:17:50;100651.97;;;-3.39;61.33
63700;BME280;49845;47.130;142.766;2023-02-24T01:20:24;100694.78;;;-3.16;61.96
63700;BME280;49845;47.130;142.766;2023-02-24T01:22:57;100692.44;;;-3.11;61.90
63700;BME280;49845;47.130;142.766;2023-02-24T01:25:32;100590.03;;;-3.71;61.75
63700;BME280;49845;47.130;142.766;2023-02-24T01:28:03;100687.66;;;-3.04;61.73
63700;BME280;49845;47.130;142.766;2023-02-24T01:30:34;100696.00;;;-2.88;62.34
63700;BME280;49845;47.130;142.766;2023-02-24T01:33:05;100684.44;;;-2.80;61.41
63700;BME280;49845;47.130;142.766;2023-02-24T01:35:36;100691.97;;;-2.64;61.21
63700;BME280;49845;47.130;142.766;2023-02-24T01:38:06;100666.47;;;-2.82;60.57
63700;BME280;49845;47.130;142.766;2023-02-24T01:40:40;100696.75;;;-2.52;60.18
63700;BME280;49845;47.130;142.766;2023-02-24T01:43:10;100696.66;;;-2.34;60.08
63700;BME280;49845;47.130;142.766;2023-02-24T01:45:42;100693.56;;;-2.27;59.90
63700;BME280;49845;47.130;142.766;2023-02-24T01:48:13;100700.69;;;-2.20;59.99
63700;BME280;49845;47.130;142.766;2023-02-24T01:50:45;100697.81;;;-2.06;59.64
63700;BME280;49845;47.130;142.766;2023-02-24T01:53:18;100697.81;;;-2.06;59.17
63700;BME280;49845;47.130;142.766;2023-02-24T01:55:50;100685.22;;;-2.02;59.73
63700;BME280;49845;47.130;142.766;2023-02-24T01:58:25;100698.56;;;-2.09;59.28
63700;BME280;49845;47.130;142.766;2023-02-24T02:01:00;100694.72;;;-1.99;59.08
63700;BME280;49845;47.130;142.766;2023-02-24T02:03:38;100647.81;;;-2.19;58.67
63700;BME280;49845;47.130;142.766;2023-02-24T02:06:12;100638.72;;;-1.90;58.82
63700;BME280;49845;47.130;142.766;2023-02-24T02:08:45;100689.31;;;-1.63;58.20
63700;BME280;49845;47.130;142.766;2023-02-24T02:11:17;100664.97;;;-1.75;58.25
63700;BME280;49845;47.130;142.766;2023-02-24T02:13:51;100681.66;;;-1.41;58.72
63700;BME280;49845;47.130;142.766;2023-02-24T02:19:43;100669.38;;;-1.27;58.37
63700;BME280;49845;47.130;142.766;2023-02-24T02:22:38;100662.75;;;-1.43;58.14
63700;BME280;49845;47.130;142.766;2023-02-24T02:25:16;100661.31;;;-1.59;58.83
63700;BME280;49845;47.130;142.766;2023-02-24T02:28:11;100660.44;;;-1.59;59.52
63700;BME280;49845;47.130;142.766;2023-02-24T02:31:03;100662.06;;;-1.61;59.46
63700;BME280;49845;47.130;142.766;2023-02-24T02:34:14;100654.59;;;-1.55;60.18
63700;BME280;49845;47.130;142.766;2023-02-24T02:36:55;100631.31;;;-1.39;59.56
63700;BME280;49845;47.130;142.766;2023-02-24T02:39:33;100620.78;;;-1.22;59.44
63700;BME280;49845;47.130;142.766;2023-02-24T02:42:09;100643.25;;;-0.93;59.13
63700;BME280;49845;47.130;142.766;2023-02-24T02:44:47;100639.78;;;-0.95;58.43
63700;BME280;49845;47.130;142.766;2023-02-24T02:47:26;100618.72;;;-1.33;59.12
63700;BME280;49845;47.130;142.766;2023-02-24T02:50:06;100632.34;;;-1.34;59.58
63700;BME280;49845;47.130;142.766;2023-02-24T02:52:42;100631.38;;;-1.37;59.58
63700;BME280;49845;47.130;142.766;2023-02-24T02:55:18;100497.53;;;-2.43;60.04
63700;BME280;49845;47.130;142.766;2023-02-24T02:57:53;100620.03;;;-1.44;60.52
63700;BME280;49845;47.130;142.766;2023-02-24T03:00:27;100613.00;;;-1.48;60.49
63700;BME280;49845;47.130;142.766;2023-02-24T03:03:05;100597.75;;;-1.67;60.54
63700;BME280;49845;47.130;142.766;2023-02-24T03:05:42;100598.94;;;-1.59;61.11
63700;BME280;49845;47.130;142.766;2023-02-24T03:08:19;100608.25;;;-1.61;60.88
63700;BME280;49845;47.130;142.766;2023-02-24T03:10:52;100518.97;;;-2.18;60.87
63700;BME280;49845;47.130;142.766;2023-02-24T03:13:24;100594.84;;;-1.77;60.78
63700;BME280;49845;47.130;142.766;2023-02-24T03:15:58;100598.69;;;-1.65;61.10
63700;BME280;49845;47.130;142.766;2023-02-24T03:18:34;100602.56;;;-1.54;60.87
63700;BME280;49845;47.130;142.766;2023-02-24T03:21:14;100587.50;;;-1.45;60.35
63700;BME280;49845;47.130;142.766;2023-02-24T03:23:49;100590.88;;;-1.46;59.71
63700;BME280;49845;47.130;142.766;2023-02-24T03:26:26;100601.25;;;-1.43;59.78
63700;BME280;49845;47.130;142.766;2023-02-24T03:29:04;100590.81;;;-1.01;59.94
63700;BME280;49845;47.130;142.766;2023-02-24T03:31:41;100596.09;;;-0.47;58.00
63700;BME280;49845;47.130;142.766;2023-02-24T03:34:16;100594.75;;;-0.35;57.66
63700;BME280;49845;47.130;142.766;2023-02-24T03:36:50;100581.44;;;-0.24;57.49
63700;BME280;49845;47.130;142.766;2023-02-24T03:39:23;100587.69;;;0.12;57.59
63700;BME280;49845;47.130;142.766;2023-02-24T03:41:57;100588.91;;;0.52;56.84
63700;BME280;49845;47.130;142.766;2023-02-24T03:44:31;100498.31;;;0.02;56.25
63700;BME280;49845;47.130;142.766;2023-02-24T03:47:02;100584.09;;;0.34;55.40
63700;BME280;49845;47.130;142.766;2023-02-24T03:49:33;100582.84;;;0.21;56.13
63700;BME280;49845;47.130;142.766;2023-02-24T03:52:15;100570.56;;;0.11;56.08
63700;BME280;49845;47.130;142.766;2023-02-24T03:55:00;100572.91;;;0.05;56.32
63700;BME280;49845;47.130;142.766;2023-02-24T03:57:44;100580.16;;;-0.11;56.33
63700;BME280;49845;47.130;142.766;2023-02-24T04:00:32;100559.19;;;-0.23;56.71
63700;BME280;49845;47.130;142.766;2023-02-24T04:03:18;100585.09;;;-0.17;56.05
63700;BME280;49845;47.130;142.766;2023-02-24T04:05:57;100577.72;;;-0.33;55.80
63700;BME280;49845;47.130;142.766;2023-02-24T04:08:38;100567.84;;;-0.21;56.28
63700;BME280;49845;47.130;142.766;2023-02-24T04:11:15;100555.72;;;-0.25;56.24
63700;BME280;49845;47.130;142.766;2023-02-24T04:13:55;100562.00;;;-0.15;55.82
63700;BME280;49845;47.130;142.766;2023-02-24T04:16:30;100562.25;;;-0.08;56.04
63700;BME280;49845;47.130;142.766;2023-02-24T04:19:06;100569.16;;;0.22;56.07
63700;BME280;49845;47.130;142.766;2023-02-24T04:21:39;100562.81;;;0.39;55.99
63700;BME280;49845;47.130;142.766;2023-02-24T04:24:13;100571.25;;;0.64;55.92
63700;BME280;49845;47.130;142.766;2023-02-24T04:26:46;100572.63;;;0.81;55.72
63700;BME280;49845;47.130;142.766;2023-02-24T04:29:19;100558.31;;;0.61;55.38
63700;BME280;49845;47.130;142.766;2023-02-24T04:31:53;100574.03;;;0.41;55.49
63700;BME280;49845;47.130;142.766;2023-02-24T04:34:27;100573.22;;;0.14;56.20
63700;BME280;49845;47.130;142.766;2023-02-24T04:37:00;100524.72;;;-0.31;56.36
63700;BME280;49845;47.130;142.766;2023-02-24T04:39:33;100573.44;;;-0.06;57.24
63700;BME280;49845;47.130;142.766;2023-02-24T04:42:06;100561.94;;;-0.18;56.91
63700;BME280;49845;47.130;142.766;2023-02-24T04:44:37;100571.31;;;-0.19;57.61
63700;BME280;49845;47.130;142.766;2023-02-24T04:47:09;100572.06;;;-0.49;57.62
63700;BME280;49845;47.130;142.766;2023-02-24T04:49:40;100568.56;;;-0.51;58.25
63700;BME280;49845;47.130;142.766;2023-02-24T04:52:12;100568.66;;;-0.48;58.82
63700;BME280;49845;47.130;142.766;2023-02-24T04:54:45;100566.09;;;-0.48;58.34
63700;BME280;49845;47.130;142.766;2023-02-24T04:57:15;100570.69;;;-0.64;58.48
63700;BME280;49845;47.130;142.766;2023-02-24T04:59:46;100569.59;;;-0.71;58.29
63700;BME280;49845;47.130;142.766;2023-02-24T05:02:16;100573.78;;;-0.75;58.57
63700;BME280;49845;47.130;142.766;2023-02-24T05:04:48;100576.19;;;-0.79;58.93
63700;BME280;49845;47.130;142.766;2023-02-24T05:07:18;100574.31;;;-0.83;59.11
63700;BME280;49845;47.130;142.766;2023-02-24T05:09:51;100575.41;;;-1.01;59.37
63700;BME280;49845;47.130;142.766;2023-02-24T05:12:22;100571.94;;;-1.03;60.23
63700;BME280;49845;47.130;142.766;2023-02-24T05:14:52;100581.97;;;-1.09;60.06
63700;BME280;49845;47.130;142.766;2023-02-24T05:17:27;100564.84;;;-1.34;60.27
63700;BME280;49845;47.130;142.766;2023-02-24T05:19:58;100575.75;;;-1.40;60.68
63700;BME280;49845;47.130;142.766;2023-02-24T05:23:00;100558.59;;;-1.41;61.69
63700;BME280;49845;47.130;142.766;2023-02-24T05:25:32;100539.75;;;-1.65;62.30
63700;BME280;49845;47.130;142.766;2023-02-24T05:28:05;100576.56;;;-1.41;63.46
63700;BME280;49845;47.130;142.766;2023-02-24T05:30:35;100577.22;;;-1.22;64.12
63700;BME280;49845;47.130;142.766;2023-02-24T05:33:07;100588.94;;;-1.05;65.08
63700;BME280;49845;47.130;142.766;2023-02-24T05:35:37;100475.28;;;-1.29;64.93
63700;BME280;49845;47.130;142.766;2023-02-24T05:38:08;100581.91;;;-0.10;65.13
63700;BME280;49845;47.130;142.766;2023-02-24T05:40:41;100576.16;;;0.26;64.59
63700;BME280;49845;47.130;142.766;2023-02-24T05:43:14;100563.56;;;0.07;64.42
63700;BME280;49845;47.130;142.766;2023-02-24T05:45:46;100575.97;;;-0.34;63.91
63700;BME280;49845;47.130;142.766;2023-02-24T05:48:16;100572.00;;;-0.76;63.86
63700;BME280;49845;47.130;142.766;2023-02-24T05:50:51;100565.72;;;-1.10;64.13
63700;BME280;49845;47.130;142.766;2023-02-24T05:53:22;100581.28;;;-1.27;64.75
63700;BME280;49845;47.130;142.766;2023-02-24T05:55:54;100575.50;;;-1.46;64.42
63700;BME280;49845;47.130;142.766;2023-02-24T05:58:25;100575.06;;;-1.58;65.02
63700;BME280;49845;47.130;142.766;2023-02-24T06:00:56;100576.81;;;-1.57;65.02
63700;BME280;49845;47.130;142.766;2023-02-24T06:03:33;100577.13;;;-1.48;65.24
63700;BME280;49845;47.130;142.766;2023-02-24T06:06:04;100572.13;;;-1.45;64.82
63700;BME280;49845;47.130;142.766;2023-02-24T06:08:36;100570.72;;;-1.37;64.52
63700;BME280;49845;47.130;142.766;2023-02-24T06:11:18;100578.41;;;-1.37;63.93
63700;BME280;49845;47.130;142.766;2023-02-24T06:13:50;100580.88;;;-1.40;63.86
63700;BME280;49845;47.130;142.766;2023-02-24T06:16:25;100581.41;;;-1.48;63.46
63700;BME280;49845;47.130;142.766;2023-02-24T06:18:55;100583.13;;;-1.47;63.07
63700;BME280;49845;47.130;142.766;2023-02-24T06:21:26;100584.34;;;-1.38;63.03
63700;BME280;49845;47.130;142.766;2023-02-24T06:23:58;100578.66;;;-1.53;62.62
63700;BME280;49845;47.130;142.766;2023-02-24T06:26:30;100598.94;;;-1.59;62.36
63700;BME280;49845;47.130;142.766;2023-02-24T06:29:04;100576.56;;;-1.86;62.46
63700;BME280;49845;47.130;142.766;2023-02-24T06:31:35;100595.78;;;-1.97;62.46
63700;BME280;49845;47.130;142.766;2023-02-24T06:34:05;100561.97;;;-2.32;63.14
63700;BME280;49845;47.130;142.766;2023-02-24T06:36:37;100571.94;;;-2.38;63.33
63700;BME280;49845;47.130;142.766;2023-02-24T06:39:08;100605.50;;;-2.30;63.84
63700;BME280;49845;47.130;142.766;2023-02-24T06:41:49;100583.44;;;-2.49;63.66
63700;BME280;49845;47.130;142.766;2023-02-24T06:44:20;100602.66;;;-2.38;64.57
63700;BME280;49845;47.130;142.766;2023-02-24T06:46:51;100606.16;;;-2.36;64.23
63700;BME280;49845;47.130;142.766;2023-02-24T06:49:22;100613.00;;;-2.35;64.48
63700;BME280;49845;47.130;142.766;2023-02-24T06:51:53;100613.91;;;-2.34;65.03
63700;BME280;49845;47.130;142.766;2023-02-24T06:54:26;100609.78;;;-2.31;65.22
63700;BME280;49845;47.130;142.766;2023-02-24T06:56:59;100601.31;;;-2.70;65.28
63700;BME280;49845;47.130;142.766;2023-02-24T06:59:30;100622.94;;;-2.83;65.99
63700;BME280;49845;47.130;142.766;2023-02-24T07:02:01;100625.56;;;-2.82;66.65
63700;BME280;49845;47.130;142.766;2023-02-24T07:04:32;100635.03;;;-2.79;66.92
63700;BME280;49845;47.130;142.766;2023-02-24T07:07:11;100628.06;;;-3.22;68.48
63700;BME280;49845;47.130;142.766;2023-02-24T07:09:44;100634.47;;;-3.30;69.45
63700;BME280;49845;47.130;142.766;2023-02-24T07:12:16;100640.22;;;-3.54;70.83
63700;BME280;49845;47.130;142.766;2023-02-24T07:14:48;100636.28;;;-3.65;71.55
63700;BME280;49845;47.130;142.766;2023-02-24T07:17:18;100634.97;;;-3.75;71.60
63700;BME280;49845;47.130;142.766;2023-02-24T07:19:51;100638.25;;;-4.13;73.78
63700;BME280;49845;47.130;142.766;2023-02-24T07:22:22;100630.44;;;-4.85;79.15
63700;BME280;49845;47.130;142.766;2023-02-24T07:24:53;100636.53;;;-4.99;80.92
63700;BME280;49845;47.130;142.766;2023-02-24T07:27:32;100644.38;;;-4.94;80.30
63700;BME280;49845;47.130;142.766;2023-02-24T07:30:04;100607.53;;;-5.34;79.88
63700;BME280;49845;47.130;142.766;2023-02-24T07:32:37;100649.06;;;-5.02;80.50
63700;BME280;49845;47.130;142.766;2023-02-24T07:35:08;100605.44;;;-5.41;80.63
63700;BME280;49845;47.130;142.766;2023-02-24T07:37:40;100665.00;;;-5.23;81.91
63700;BME280;49845;47.130;142.766;2023-02-24T07:42:46;100668.69;;;-5.01;82.33
63700;BME280;49845;47.130;142.766;2023-02-24T07:45:17;100649.25;;;-5.15;82.38
63700;BME280;49845;47.130;142.766;2023-02-24T07:47:50;100669.47;;;-5.18;82.48
63700;BME280;49845;47.130;142.766;2023-02-24T07:50:21;100669.88;;;-5.42;83.63
63700;BME280;49845;47.130;142.766;2023-02-24T07:52:52;100668.75;;;-5.64;83.78
63700;BME280;49845;47.130;142.766;2023-02-24T07:55:23;100669.31;;;-5.84;84.35
63700;BME280;49845;47.130;142.766;2023-02-24T07:58:09;100671.44;;;-6.07;84.90
63700;BME280;49845;47.130;142.766;2023-02-24T08:00:39;100674.25;;;-6.17;85.81
63700;BME280;49845;47.130;142.766;2023-02-24T08:03:27;100670.41;;;-6.25;85.96
63700;BME280;49845;47.130;142.766;2023-02-24T08:06:01;100671.97;;;-6.57;86.46
63700;BME280;49845;47.130;142.766;2023-02-24T08:08:42;100683.16;;;-6.68;86.51
63700;BME280;49845;47.130;142.766;2023-02-24T08:11:26;100604.03;;;-7.17;86.88
63700;BME280;49845;47.130;142.766;2023-02-24T08:14:04;100680.88;;;-6.78;87.16
63700;BME280;49845;47.130;142.766;2023-02-24T08:16:38;100690.25;;;-6.77;87.29
63700;BME280;49845;47.130;142.766;2023-02-24T08:19:11;100678.19;;;-6.95;87.25
63700;BME280;49845;47.130;142.766;2023-02-24T08:21:46;100691.75;;;-6.94;87.68
63700;BME280;49845;47.130;142.766;2023-02-24T08:24:19;100699.25;;;-6.82;88.24
63700;BME280;49845;47.130;142.766;2023-02-24T08:26:53;100699.66;;;-6.89;87.62
63700;BME280;49845;47.130;142.766;2023-02-24T08:29:37;100710.22;;;-6.97;87.61
63700;BME280;49845;47.130;142.766;2023-02-24T08:32:26;100702.47;;;-7.13;87.43
63700;BME280;49845;47.130;142.766;2023-02-24T08:35:02;100720.66;;;-7.20;87.77
63700;BME280;49845;47.130;142.766;2023-02-24T08:37:43;100709.44;;;-7.37;88.17
63700;BME280;49845;47.130;142.766;2023-02-24T08:40:34;100704.09;;;-7.42;88.42
63700;BME280;49845;47.130;142.766;2023-02-24T08:43:24;100708.97;;;-7.45;88.68
63700;BME280;49845;47.130;142.766;2023-02-24T08:46:17;100733.38;;;-7.33;88.62
63700;BME280;49845;47.130;142.766;2023-02-24T08:48:57;100687.72;;;-7.60;88.62
63700;BME280;49845;47.130;142.766;2023-02-24T08:51:28;100739.22;;;-7.21;88.79
63700;BME280;49845;47.130;142.766;2023-02-24T08:54:06;100714.72;;;-7.34;88.40
63700;BME280;49845;47.130;142.766;2023-02-24T08:56:44;100741.34;;;-7.14;88.64
63700;BME280;49845;47.130;142.766;2023-02-24T08:59:29;100691.41;;;-7.55;87.70
63700;BME280;49845;47.130;142.766;2023-02-24T09:02:20;100744.69;;;-7.42;87.49
63700;BME280;49845;47.130;142.766;2023-02-24T09:05:06;100729.88;;;-7.62;88.04
63700;BME280;49845;47.130;142.766;2023-02-24T09:07:41;100757.59;;;-7.52;88.12
63700;BME280;49845;47.130;142.766;2023-02-24T09:10:13;100744.13;;;-7.51;88.53
63700;BME280;49845;47.130;142.766;2023-02-24T09:12:48;100757.19;;;-7.31;88.54
63700;BME280;49845;47.130;142.766;2023-02-24T09:15:20;100752.88;;;-7.19;88.74
63700;BME280;49845;47.130;142.766;2023-02-24T09:17:57;100764.50;;;-7.09;88.46
63700;BME280;49845;47.130;142.766;2023-02-24T09:20:35;100758.94;;;-7.04;88.56
63700;BME280;49845;47.130;142.766;2023-02-24T09:23:21;100766.81;;;-6.99;88.20
63700;BME280;49845;47.130;142.766;2023-02-24T09:26:13;100769.47;;;-6.98;87.82
63700;BME280;49845;47.130;142.766;2023-02-24T09:28:52;100767.91;;;-6.96;87.58
63700;BME280;49845;47.130;142.766;2023-02-24T09:31:24;100776.88;;;-6.87;87.66
63700;BME280;49845;47.130;142.766;2023-02-24T09:34:12;100776.69;;;-6.90;86.98
63700;BME280;49845;47.130;142.766;2023-02-24T09:36:52;100784.88;;;-6.95;86.48
63700;BME280;49845;47.130;142.766;2023-02-24T09:39:35;100782.84;;;-7.00;86.64
63700;BME280;49845;47.130;142.766;2023-02-24T09:42:20;100788.22;;;-7.09;86.00
63700;BME280;49845;47.130;142.766;2023-02-24T09:45:06;100793.13;;;-7.12;86.35
63700;BME280;49845;47.130;142.766;2023-02-24T09:47:47;100792.34;;;-7.24;85.89
63700;BME280;49845;47.130;142.766;2023-02-24T09:50:28;100789.25;;;-7.33;86.38
63700;BME280;49845;47.130;142.766;2023-02-24T09:53:31;100787.28;;;-7.38;86.17
63700;BME280;49845;47.130;142.766;2023-02-24T09:56:15;100794.09;;;-7.37;86.71
63700;BME280;49845;47.130;142.766;2023-02-24T09:58:56;100730.06;;;-7.86;86.99
63700;BME280;49845;47.130;142.766;2023-02-24T10:01:45;100803.88;;;-7.43;86.45
63700;BME280;49845;47.130;142.766;2023-02-24T10:04:37;100799.56;;;-7.57;86.65
63700;BME280;49845;47.130;142.766;2023-02-24T10:07:23;100782.38;;;-7.88;86.82
63700;BME280;49845;47.130;142.766;2023-02-24T10:10:02;100796.16;;;-7.71;87.05
63700;BME280;49845;47.130;142.766;2023-02-24T10:12:55;100794.25;;;-7.87;87.36
63700;BME280;49845;47.130;142.766;2023-02-24T10:15:32;100805.41;;;-7.71;87.88
63700;BME280;49845;47.130;142.766;2023-02-24T10:18:29;100799.94;;;-7.77;87.51
63700;BME280;49845;47.130;142.766;2023-02-24T10:21:05;100818.09;;;-7.71;87.70
63700;BME280;49845;47.130;142.766;2023-02-24T10:23:55;100823.38;;;-7.68;87.55
63700;BME280;49845;47.130;142.766;2023-02-24T10:26:32;100820.47;;;-7.48;88.12
63700;BME280;49845;47.130;142.766;2023-02-24T10:29:45;100822.81;;;-7.38;87.82
63700;BME280;49845;47.130;142.766;2023-02-24T10:32:28;100815.78;;;-7.42;87.15
63700;BME280;49845;47.130;142.766;2023-02-24T10:35:02;100815.00;;;-7.54;87.15
63700;BME280;49845;47.130;142.766;2023-02-24T10:37:33;100824.19;;;-7.43;87.17
63700;BME280;49845;47.130;142.766;2023-02-24T10:40:07;100815.78;;;-7.42;87.30
63700;BME280;49845;47.130;142.766;2023-02-24T10:42:39;100820.06;;;-7.54;86.86
63700;BME280;49845;47.130;142.766;2023-02-24T10:45:21;100823.00;;;-7.61;86.79
63700;BME280;49845;47.130;142.766;2023-02-24T10:47:57;100826.50;;;-7.59;87.08
63700;BME280;49845;47.130;142.766;2023-02-24T10:50:33;100836.88;;;-7.56;87.24
63700;BME280;49845;47.130;142.766;2023-02-24T10:53:25;100827.47;;;-7.57;87.17
63700;BME280;49845;47.130;142.766;2023-02-24T10:56:03;100835.28;;;-7.54;86.79
63700;BME280;49845;47.130;142.766;2023-02-24T10:59:03;100841.72;;;-7.59;86.85
63700;BME280;49845;47.130;142.766;2023-02-24T11:02:18;100855.41;;;-7.57;86.81
63700;BME280;49845;47.130;142.766;2023-02-24T11:05:10;100845.53;;;-7.66;86.37
63700;BME280;49845;47.130;142.766;2023-02-24T11:08:13;100849.69;;;-7.79;86.65
63700;BME280;49845;47.130;142.766;2023-02-24T11:11:14;100802.56;;;-8.14;86.52
63700;BME280;49845;47.130;142.766;2023-02-24T11:13:53;100846.69;;;-7.99;86.60
63700;BME280;49845;47.130;142.766;2023-02-24T11:16:43;100846.88;;;-8.09;86.33
63700;BME280;49845;47.130;142.766;2023-02-24T11:19:37;100851.34;;;-8.18;86.36
63700;BME280;49845;47.130;142.766;2023-02-24T11:22:16;100848.94;;;-8.29;86.19
63700;BME280;49845;47.130;142.766;2023-02-24T11:24:56;100789.88;;;-8.78;86.23
63700;BME280;49845;47.130;142.766;2023-02-24T11:27:33;100853.44;;;-8.50;85.93
63700;BME280;49845;47.130;142.766;2023-02-24T11:30:15;100843.91;;;-8.65;85.78
63700;BME280;49845;47.130;142.766;2023-02-24T11:33:03;100856.59;;;-8.65;85.78
63700;BME280;49845;47.130;142.766;2023-02-24T11:35:40;100854.59;;;-8.70;85.83
63700;BME280;49845;47.130;142.766;2023-02-24T11:38:22;100848.88;;;-8.79;85.70
63700;BME280;49845;47.130;142.766;2023-02-24T11:41:02;100853.53;;;-8.85;85.42
63700;BME280;49845;47.130;142.766;2023-02-24T11:43:38;100857.97;;;-9.06;85.01
63700;BME280;49845;47.130;142.766;2023-02-24T11:46:13;100854.88;;;-9.25;84.37
63700;BME280;49845;47.130;142.766;2023-02-24T11:48:47;100864.69;;;-9.30;84.20
63700;BME280;49845;47.130;142.766;2023-02-24T11:51:22;100873.91;;;-9.42;83.48
63700;BME280;49845;47.130;142.766;2023-02-24T11:53:59;100864.50;;;-9.67;82.75
63700;BME280;49845;47.130;142.766;2023-02-24T11:56:35;100866.75;;;-9.93;82.34
63700;BME280;49845;47.130;142.766;2023-02-24T11:59:18;100865.44;;;-10.22;82.56
63700;BME280;49845;47.130;142.766;2023-02-24T12:01:56;100861.50;;;-10.30;82.20
63700;BME280;49845;47.130;142.766;2023-02-24T12:04:33;100782.09;;;-11.00;81.62
63700;BME280;49845;47.130;142.766;2023-02-24T12:07:09;100858.28;;;-10.94;81.34
63700;BME280;49845;47.130;142.766;2023-02-24T12:09:48;100858.13;;;-11.17;81.65
63700;BME280;49845;47.130;142.766;2023-02-24T12:12:38;100844.78;;;-11.37;82.40
63700;BME280;49845;47.130;142.766;2023-02-24T12:15:16;100849.69;;;-11.28;82.96
63700;BME280;49845;47.130;142.766;2023-02-24T12:18:00;100849.53;;;-11.19;83.59
63700;BME280;49845;47.130;142.766;2023-02-24T12:20:37;100860.84;;;-11.04;83.79
63700;BME280;49845;47.130;142.766;2023-02-24T12:23:15;100844.69;;;-11.06;84.34
63700;BME280;49845;47.130;142.766;2023-02-24T12:26:01;100869.00;;;-10.64;84.96
63700;BME280;49845;47.130;142.766;2023-02-24T12:28:52;100873.19;;;-10.65;83.81
63700;BME280;49845;47.130;142.766;2023-02-24T12:31:37;100885.31;;;-10.71;82.94
63700;BME280;49845;47.130;142.766;2023-02-24T12:34:20;100870.53;;;-10.66;82.25
63700;BME280;49845;47.130;142.766;2023-02-24T12:37:02;100867.41;;;-10.74;80.93
63700;BME280;49845;47.130;142.766;2023-02-24T12:39:48;100820.84;;;-11.42;78.47
63700;BME280;49845;47.130;142.766;2023-02-24T12:42:29;100860.72;;;-11.48;77.29
63700;BME280;49845;47.130;142.766;2023-02-24T12:45:14;100851.66;;;-11.77;76.92
63700;BME280;49845;47.130;142.766;2023-02-24T12:47:59;100852.19;;;-12.01;77.77
63700;BME280;49845;47.130;142.766;2023-02-24T12:50:36;100853.94;;;-12.21;78.88
63700;BME280;49845;47.130;142.766;2023-02-24T12:53:21;100853.22;;;-12.20;79.99
63700;BME280;49845;47.130;142.766;2023-02-24T12:56:00;100861.00;;;-12.06;80.67
63700;BME280;49845;47.130;142.766;2023-02-24T12:58:41;100855.09;;;-11.97;81.43
63700;BME280;49845;47.130;142.766;2023-02-24T13:01:22;100855.47;;;-11.92;81.40
63700;BME280;49845;47.130;142.766;2023-02-24T13:04:03;100852.69;;;-11.85;81.42
63700;BME280;49845;47.130;142.766;2023-02-24T13:06:49;100862.50;;;-11.67;81.14
63700;BME280;49845;47.130;142.766;2023-02-24T13:09:30;100860.13;;;-11.86;79.91
63700;BME280;49845;47.130;142.766;2023-02-24T13:12:07;100863.78;;;-11.73;79.30
63700;BME280;49845;47.130;142.766;2023-02-24T13:14:56;100874.06;;;-11.49;78.92
63700;BME280;49845;47.130;142.766;2023-02-24T13:17:27;100872.28;;;-11.40;79.30
63700;BME280;49845;47.130;142.766;2023-02-24T13:20:11;100874.03;;;-11.29;79.37
63700;BME280;49845;47.130;142.766;2023-02-24T13:22:43;100875.28;;;-11.34;78.83
63700;BME280;49845;47.130;142.766;2023-02-24T13:25:19;100873.53;;;-11.24;78.94
63700;BME280;49845;47.130;142.766;2023-02-24T13:27:56;100822.38;;;-11.54;78.48